Magrath, Canada
Current Conditions -  °F | °C
As of 2:00 PM on Sunday 23 Nov 2014 (Local Time) from CYQL Reporting Station
Broken Clouds Broken Clouds  
Wind Chill: 30°   Ceiling: 26000
Heat Index: 41°   Visibility: 40mi
Dew Point: 21°   Wind: 26mph
Humidity: 45%   Direction: 270°W
Pressure: 29.75"   Gusts: 37mph
Location:  49.42°N, 112.87°W
Report Text: CYQL 232100Z 27023G32KT 40SM FEW060 SCT150 BKN260 05/M06 A2975 RMK SC1AC2CI4 SLP104
Loading
Personal Weather Stations






























Interactive Weather Map New forecast layout! Learn more

10-Day Weather Forecast

Advertisements
Track Severe Weather on mobile